Time;durP1;ratioP1;P1;durP2;ratioP2;P2;SDS_P1;SDS_P2;PMS_P1;PMS_P2;Temp;Humidity;BMP_temperature;BMP_pressure;BME280_temperature;BME280_humidity;BME280_pressure;Samples;Min_cycle;Max_cycle;Signal;HPM_P1;HPM_P2
2023/07/12 00:01:02;;;;;;;10.35;8.15;;;;;;;23.29;66.15;99737.47;5022684;28;20041;-79
2023/07/12 00:03:30;;;;;;;9.40;8.23;;;;;;;23.26;67.26;99750.25;5047861;28;20041;-78
2023/07/12 00:05:57;;;;;;;9.50;8.48;;;;;;;23.22;67.57;99748.75;5031404;28;20053;-83
2023/07/12 00:08:31;;;;;;;9.63;7.68;;;;;;;23.19;68.76;99746.31;5017449;28;20041;-78
2023/07/12 00:10:59;;;;;;;9.25;7.65;;;;;;;23.15;69.20;99747.53;5044049;28;20066;-78
2023/07/12 00:13:31;;;;;;;;;;;;;;;23.08;71.64;99739.13;5035062;28;20038;-79
2023/07/12 00:15:58;;;;;;;13.35;8.27;;;;;;;22.98;72.01;99736.28;5019126;28;19917;-79
2023/07/12 00:18:27;;;;;;;9.60;7.63;;;;;;;22.90;72.17;99736.84;5051177;28;20033;-78
2023/07/12 00:20:54;;;;;;;8.13;6.97;;;;;;;22.88;72.78;99727.25;5032218;28;20060;-79
2023/07/12 00:23:21;;;;;;;10.65;8.55;;;;;;;22.84;73.23;99728.47;5033339;28;20045;-78
2023/07/12 00:25:49;;;;;;;8.55;7.38;;;;;;;22.79;73.52;99736.84;5035744;28;20086;-80
2023/07/12 00:28:26;;;;;;;9.50;7.97;;;;;;;22.73;73.69;99719.44;5020102;28;20040;-78
2023/07/12 00:30:56;;;;;;;9.93;7.20;;;;;;;22.63;73.96;99715.75;5037602;28;20037;-78
2023/07/12 00:33:25;;;;;;;7.65;6.95;;;;;;;22.65;73.86;99715.66;5035825;28;20041;-80
2023/07/12 00:35:52;;;;;;;9.57;7.10;;;;;;;22.67;73.51;99721.72;5034872;28;20041;-80
2023/07/12 00:38:23;;;;;;;9.10;7.53;;;;;;;22.67;73.93;99729.72;5018321;28;20490;-78
2023/07/12 00:41:01;;;;;;;10.35;8.05;;;;;;;22.72;74.50;99722.22;5024703;28;20045;-78
2023/07/12 00:43:54;;;;;;;7.63;6.40;;;;;;;22.71;73.85;99721.41;5054335;28;20102;-78
2023/07/12 00:46:33;;;;;;;7.55;6.05;;;;;;;22.76;74.06;99727.25;5024519;28;20060;-80
2023/07/12 00:49:00;;;;;;;7.82;6.88;;;;;;;22.77;73.50;99714.72;5032539;28;20034;-79
2023/07/12 00:51:34;;;;;;;9.55;7.15;;;;;;;22.80;73.56;99731.38;5032916;28;20045;-79
2023/07/12 00:54:02;;;;;;;8.23;7.18;;;;;;;22.85;73.30;99736.34;5031783;28;20048;-78
2023/07/12 00:56:28;;;;;;;6.72;6.13;;;;;;;22.91;73.01;99737.72;5041582;28;20041;-79
2023/07/12 00:59:04;;;;;;;9.82;7.93;;;;;;;22.90;72.97;99736.84;5034774;28;20461;-83
2023/07/12 01:01:35;;;;;;;8.20;7.35;;;;;;;22.91;72.84;99737.72;5044775;28;20042;-80
2023/07/12 01:04:03;;;;;;;9.88;7.57;;;;;;;22.90;72.92;99730.69;5044607;28;20511;-80
2023/07/12 01:06:31;;;;;;;9.43;7.95;;;;;;;22.85;73.33;99736.34;5028031;28;20078;-80
2023/07/12 01:09:03;;;;;;;9.40;7.63;;;;;;;22.82;73.46;99744.59;5046709;28;20481;-80
2023/07/12 01:11:31;;;;;;;9.90;7.53;;;;;;;22.85;73.75;99755.03;5013818;28;20042;-83
2023/07/12 01:13:57;;;;;;;8.52;7.55;;;;;;;22.86;73.71;99747.88;5032204;28;20129;-80
2023/07/12 01:16:25;;;;;;;9.10;7.78;;;;;;;22.84;73.61;99737.34;5041987;28;20047;-80
2023/07/12 01:18:53;;;;;;;8.35;7.40;;;;;;;22.89;73.67;99750.31;5032899;28;20137;-81
2023/07/12 01:21:24;;;;;;;8.20;7.30;;;;;;;22.95;73.41;99776.56;5048505;28;20534;-80
2023/07/12 01:23:51;;;;;;;8.57;6.22;;;;;;;23.04;72.93;99802.53;5052291;28;20132;-81
2023/07/12 01:26:38;;;;;;;9.48;7.57;;;;;;;23.16;72.67;99888.06;5033455;28;20415;-80
2023/07/12 01:29:07;;;;;;;9.68;6.90;;;;;;;23.16;71.79;99880.06;5028677;28;20053;-80
2023/07/12 01:31:35;;;;;;;11.95;6.43;;;;;;;23.09;71.30;99885.81;5031344;28;20040;-84
2023/07/12 01:34:03;;;;;;;10.45;6.85;;;;;;;22.91;73.09;99882.66;5027698;28;20033;-80
2023/07/12 01:36:31;;;;;;;7.70;6.80;;;;;;;22.67;74.79;99901.31;5028853;28;20057;-86
2023/07/12 01:39:00;;;;;;;7.22;6.18;;;;;;;22.45;76.97;99918.00;5037730;28;20041;-80
2023/07/12 01:41:28;;;;;;;11.35;6.50;;;;;;;22.17;79.20;99919.88;5035677;28;20049;-80
2023/07/12 01:43:55;;;;;;;9.63;5.68;;;;;;;21.92;82.03;99931.38;5031586;28;20039;-80
2023/07/12 01:46:31;;;;;;;11.02;6.50;;;;;;;21.73;83.33;99916.66;5016050;28;20137;-85
2023/07/12 01:48:58;;;;;;;7.15;5.63;;;;;;;21.58;84.54;99907.88;5031344;28;20049;-80
2023/07/12 01:51:25;;;;;;;10.10;5.45;;;;;;;21.38;86.86;99919.81;5013315;28;20041;-81
2023/07/12 01:53:51;;;;;;;6.88;5.40;;;;;;;21.22;87.75;99924.44;5030559;28;20037;-82
2023/07/12 01:56:18;;;;;;;6.63;5.38;;;;;;;21.13;89.28;99936.53;5029524;28;20041;-84
2023/07/12 01:58:44;;;;;;;8.85;6.03;;;;;;;20.96;90.38;99930.50;5025007;28;20037;-80
2023/07/12 02:01:11;;;;;;;7.43;4.95;;;;;;;20.82;91.64;99899.47;5027422;28;20048;-80
2023/07/12 02:03:38;;;;;;;11.13;5.65;;;;;;;20.71;93.07;99912.56;5025111;28;20049;-80
2023/07/12 02:06:04;;;;;;;6.90;5.18;;;;;;;20.60;93.05;99894.63;5017179;28;20091;-80
2023/07/12 02:08:30;;;;;;;6.18;4.80;;;;;;;20.55;93.43;99907.34;5059726;28;20037;-80
2023/07/12 02:10:57;;;;;;;10.50;5.05;;;;;;;20.49;94.40;99916.56;5035735;28;20486;-83
2023/07/12 02:13:24;;;;;;;7.78;5.80;;;;;;;20.38;95.02;99916.38;5031555;28;20045;-79
2023/07/12 02:15:51;;;;;;;5.60;4.50;;;;;;;20.26;96.37;99914.44;5015914;28;20095;-78
2023/07/12 02:18:18;;;;;;;7.20;4.82;;;;;;;20.14;96.45;99908.09;5031765;28;20045;-79
2023/07/12 02:20:45;;;;;;;4.40;4.00;;;;;;;20.06;97.22;99897.91;5031243;28;20089;-78
2023/07/12 02:23:12;;;;;;;5.68;4.25;;;;;;;20.00;97.78;99895.66;5030944;28;20088;-77
2023/07/12 02:25:38;;;;;;;6.82;4.32;;;;;;;19.91;98.27;99904.19;5047819;28;20037;-79
2023/07/12 02:28:05;;;;;;;6.05;3.65;;;;;;;19.82;98.65;99901.09;5048766;28;20120;-79
2023/07/12 02:30:32;;;;;;;5.82;3.55;;;;;;;19.78;98.67;99894.25;5033627;28;20037;-79
2023/07/12 02:32:59;;;;;;;4.30;3.85;;;;;;;19.78;99.07;99893.41;5032012;28;20048;-79
2023/07/12 02:35:29;;;;;;;3.42;3.08;;;;;;;19.76;98.80;99897.94;5017173;28;20128;-78
2023/07/12 02:37:57;;;;;;;5.00;3.13;;;;;;;19.72;99.26;99905.22;5032611;28;20041;-78
2023/07/12 02:40:25;;;;;;;5.50;3.17;;;;;;;19.70;99.08;99917.75;5031522;28;20049;-79
2023/07/12 02:42:53;;;;;;;4.68;3.55;;;;;;;19.67;99.41;99923.22;5031796;28;20516;-79
2023/07/12 02:45:20;;;;;;;5.75;3.38;;;;;;;19.66;99.22;99940.97;5028755;28;20042;-79
2023/07/12 02:47:46;;;;;;;5.85;3.28;;;;;;;19.64;99.89;99942.00;5023460;28;20385;-79
2023/07/12 02:50:13;;;;;;;4.38;2.95;;;;;;;19.59;100.00;99952.88;5028598;28;20188;-79
2023/07/12 02:52:40;;;;;;;6.13;3.72;;;;;;;19.53;100.00;99955.03;5031377;28;20091;-80
2023/07/12 02:55:07;;;;;;;5.97;3.88;;;;;;;19.47;100.00;99950.94;5015252;28;20033;-79
2023/07/12 02:57:33;;;;;;;3.08;2.72;;;;;;;19.46;100.00;99930.66;5047331;28;20056;-79
2023/07/12 03:00:00;;;;;;;4.68;3.55;;;;;;;19.42;100.00;99937.91;5031967;28;20064;-80
2023/07/12 03:02:26;;;;;;;6.22;4.10;;;;;;;19.37;100.00;99939.97;5015438;28;20037;-79
2023/07/12 03:04:53;;;;;;;4.07;3.20;;;;;;;19.30;100.00;99938.63;5047775;28;20362;-79
2023/07/12 03:07:19;;;;;;;7.53;4.28;;;;;;;19.25;100.00;99946.00;5033241;28;20046;-79
2023/07/12 03:09:46;;;;;;;7.13;4.18;;;;;;;19.14;100.00;99933.34;5047899;28;20046;-79
2023/07/12 03:12:12;;;;;;;5.32;3.55;;;;;;;19.05;100.00;99933.88;5031507;28;20472;-80
2023/07/12 03:14:39;;;;;;;7.43;4.70;;;;;;;18.98;100.00;99935.97;5011763;28;20054;-79
2023/07/12 03:17:06;;;;;;;8.02;3.70;;;;;;;18.92;100.00;99937.19;5016089;28;20045;-78
2023/07/12 03:19:36;;;;;;;4.45;4.13;;;;;;;18.90;100.00;99922.31;5047508;28;20781;-81
2023/07/12 03:22:03;;;;;;;3.45;2.90;;;;;;;18.91;100.00;99916.91;5027692;28;20050;-79
2023/07/12 03:24:29;;;;;;;3.15;2.85;;;;;;;18.94;100.00;99915.88;5013666;28;20038;-79
2023/07/12 03:26:56;;;;;;;5.00;3.08;;;;;;;18.93;100.00;99933.59;5031087;28;20045;-79
2023/07/12 03:29:23;;;;;;;3.28;3.08;;;;;;;18.94;100.00;99926.50;5014952;28;20041;-79
2023/07/12 03:31:49;;;;;;;5.00;2.83;;;;;;;18.94;100.00;99931.78;5031506;28;20037;-80
2023/07/12 03:34:16;;;;;;;3.58;2.70;;;;;;;18.97;100.00;99936.94;5031465;28;20468;-79
2023/07/12 03:36:43;;;;;;;4.10;3.45;;;;;;;18.94;100.00;99945.94;5031767;28;20116;-79
2023/07/12 03:39:09;;;;;;;3.30;3.08;;;;;;;18.94;100.00;99955.66;5047758;28;20429;-80
2023/07/12 03:41:36;;;;;;;3.83;3.17;;;;;;;18.92;100.00;99961.06;5031807;28;20038;-80
2023/07/12 03:44:02;;;;;;;6.32;3.30;;;;;;;18.95;100.00;99966.19;5031149;28;20037;-80
2023/07/12 03:46:29;;;;;;;4.15;3.40;;;;;;;18.99;100.00;99991.63;5031522;28;20117;-79
2023/07/12 03:48:55;;;;;;;3.85;2.67;;;;;;;19.00;100.00;100000.41;5032406;28;20029;-80
2023/07/12 03:51:23;;;;;;;4.50;3.28;;;;;;;18.95;100.00;99990.06;5031368;28;20480;-79
2023/07/12 03:53:49;;;;;;;6.05;3.22;;;;;;;18.91;100.00;99996.47;5014488;28;20042;-79
2023/07/12 03:56:15;;;;;;;6.25;3.22;;;;;;;18.90;100.00;100008.00;5031159;28;20049;-79
2023/07/12 03:58:42;;;;;;;6.43;2.65;;;;;;;18.91;100.00;100004.41;5032054;28;20395;-79
2023/07/12 04:01:11;;;;;;;4.70;2.47;;;;;;;19.06;100.00;100005.41;5050890;28;20048;-79
2023/07/12 04:03:39;;;;;;;4.10;2.60;;;;;;;19.16;100.00;100016.34;5050645;28;20037;-82
2023/07/12 04:06:07;;;;;;;6.20;2.40;;;;;;;19.21;100.00;100016.94;5051227;28;20103;-78
2023/07/12 04:08:34;;;;;;;4.60;2.35;;;;;;;19.22;100.00;100028.44;5034413;28;20044;-79
2023/07/12 04:11:05;;;;;;;3.22;2.42;;;;;;;19.21;100.00;100034.69;5036530;28;20116;-79
2023/07/12 04:13:32;;;;;;;3.17;2.50;;;;;;;19.29;100.00;100037.75;5034298;28;20087;-79
2023/07/12 04:16:01;;;;;;;2.80;2.13;;;;;;;19.32;100.00;100054.38;5025700;28;20049;-82
2023/07/12 04:18:28;;;;;;;3.55;2.30;;;;;;;19.39;100.00;100030.16;5028702;28;20049;-83
2023/07/12 04:20:58;;;;;;;4.78;2.15;;;;;;;19.43;100.00;100055.56;5007749;28;20045;-83
2023/07/12 04:23:26;;;;;;;3.22;2.00;;;;;;;19.47;100.00;100065.09;5044555;28;20361;-82
2023/07/12 04:26:01;;;;;;;7.68;2.55;;;;;;;19.49;100.00;100074.66;5032174;28;20041;-79
2023/07/12 04:28:27;;;;;;;3.83;2.42;;;;;;;19.56;100.00;100080.50;5017552;28;20034;-79
2023/07/12 04:30:54;;;;;;;4.60;1.85;;;;;;;19.64;100.00;100088.03;5033887;28;20383;-79
2023/07/12 04:33:21;;;;;;;3.72;2.05;;;;;;;19.67;100.00;100090.50;5029810;28;20048;-79
2023/07/12 04:35:47;;;;;;;3.95;1.95;;;;;;;19.72;100.00;100079.63;5034311;28;20044;-80
2023/07/12 04:38:14;;;;;;;3.58;2.45;;;;;;;19.78;100.00;100071.34;5033667;28;20045;-80
2023/07/12 04:40:40;;;;;;;3.28;2.38;;;;;;;19.73;100.00;100094.63;5034194;28;20057;-80
2023/07/12 04:43:07;;;;;;;2.88;1.60;;;;;;;19.61;100.00;100091.72;5017617;28;20083;-79
2023/07/12 04:45:34;;;;;;;2.10;1.90;;;;;;;19.52;100.00;100097.53;5042030;28;20037;-80
2023/07/12 04:48:00;;;;;;;8.15;2.22;;;;;;;19.50;100.00;100102.06;5017262;28;20052;-80
2023/07/12 04:50:27;;;;;;;2.50;1.60;;;;;;;19.56;100.00;100104.38;5035068;28;20092;-78
2023/07/12 04:52:54;;;;;;;3.83;1.80;;;;;;;19.66;100.00;100097.63;5034176;28;20048;-79
2023/07/12 04:55:27;;;;;;;1.08;1.08;;;;;;;19.71;100.00;100092.06;5034181;28;20045;-79
2023/07/12 04:57:54;;;;;;;2.50;1.10;;;;;;;19.80;100.00;100090.66;5018625;28;20506;-79
2023/07/12 05:00:24;;;;;;;1.67;1.58;;;;;;;19.85;100.00;100101.94;5034020;28;20092;-79
2023/07/12 05:02:52;;;;;;;2.10;1.17;;;;;;;19.82;99.65;100112.75;5034380;28;20041;-79
2023/07/12 05:05:32;;;;;;;1.27;1.10;;;;;;;19.78;98.83;100137.72;5018466;28;20045;-79
2023/07/12 05:08:19;;;;;;;2.00;0.88;;;;;;;19.72;98.95;100141.56;5034135;28;20045;-79
2023/07/12 05:12:11;;;;;;;1.83;0.90;;;;;;;19.60;99.56;100134.28;5034363;28;20040;-80
2023/07/12 05:14:37;;;;;;;;;;;;;;;19.59;99.52;100132.56;5035820;28;20034;-79
2023/07/12 05:17:04;;;;;;;2.92;0.82;;;;;;;19.57;100.00;100140.63;5035104;28;19944;-78
2023/07/12 05:28:11;;;;;;;1.08;0.90;;;;;;;19.96;96.95;100178.38;5280120;22;20037;-79
2023/07/12 05:30:51;;;;;;;3.13;1.08;;;;;;;20.09;95.79;100175.88;5019436;28;20048;-79
2023/07/12 05:33:37;;;;;;;1.15;0.90;;;;;;;20.24;94.20;100174.16;5033057;28;20108;-79
2023/07/12 05:36:06;;;;;;;1.90;1.00;;;;;;;20.48;93.42;100162.09;5033481;28;20087;-80
2023/07/12 05:38:33;;;;;;;2.22;1.52;;;;;;;20.63;92.38;100170.97;5039160;28;20045;-81
2023/07/12 05:41:00;;;;;;;2.13;1.83;;;;;;;20.74;91.41;100183.69;5014990;28;20460;-80
2023/07/12 05:43:46;;;;;;;2.45;1.60;;;;;;;20.69;90.49;100182.19;5013829;28;20052;-80
2023/07/12 05:46:13;;;;;;;3.78;0.95;;;;;;;20.70;89.33;100181.28;4997417;28;20091;-84
2023/07/12 05:48:39;;;;;;;1.98;1.10;;;;;;;20.63;89.52;100184.28;5010177;28;20124;-83
2023/07/12 05:51:07;;;;;;;1.27;0.85;;;;;;;20.57;88.81;100158.06;5014154;28;20045;-79
2023/07/12 05:53:34;;;;;;;1.60;1.13;;;;;;;20.40;88.35;100150.19;5031248;28;20052;-79
2023/07/12 05:56:02;;;;;;;7.18;3.30;;;;;;;20.26;88.66;100167.81;5009785;28;20044;-80
2023/07/12 05:58:28;;;;;;;7.53;2.50;;;;;;;20.21;89.17;100158.38;5016128;28;20049;-81
2023/07/12 06:01:00;;;;;;;3.67;1.70;;;;;;;20.10;89.23;100151.00;5028890;28;20551;-80
2023/07/12 06:03:32;;;;;;;2.25;1.38;;;;;;;20.05;89.84;100148.63;5030746;28;20045;-81
2023/07/12 06:06:02;;;;;;;4.15;2.28;;;;;;;20.03;90.15;100123.94;5016645;28;20100;-80
2023/07/12 06:08:28;;;;;;;1.45;1.30;;;;;;;19.97;89.53;100138.44;5016396;28;20391;-79
2023/07/12 06:10:55;;;;;;;2.63;1.60;;;;;;;19.95;89.57;100152.75;5016468;28;20433;-80
2023/07/12 06:13:22;;;;;;;2.05;1.20;;;;;;;20.09;89.30;100139.53;5032977;28;20037;-80
2023/07/12 06:15:48;;;;;;;4.28;1.00;;;;;;;20.40;87.44;100134.25;5016000;28;20468;-79
2023/07/12 06:18:15;;;;;;;7.93;1.48;;;;;;;20.53;85.60;100131.72;5016193;28;20145;-79
2023/07/12 06:20:41;;;;;;;1.80;0.65;;;;;;;20.50;85.22;100130.94;5031877;28;20494;-79
2023/07/12 06:23:08;;;;;;;0.98;0.85;;;;;;;20.49;85.31;100126.59;5016396;28;20052;-81
2023/07/12 06:25:34;;;;;;;1.02;0.98;;;;;;;20.43;85.31;100132.28;5016131;28;20038;-80
2023/07/12 06:28:01;;;;;;;3.03;0.68;;;;;;;20.42;84.45;100135.88;5015592;28;20049;-79
2023/07/12 06:30:27;;;;;;;3.30;0.82;;;;;;;20.38;84.20;100146.78;5032412;28;20041;-80
2023/07/12 06:32:54;;;;;;;1.30;0.85;;;;;;;20.36;83.55;100148.66;5032679;28;20043;-80
2023/07/12 06:35:20;;;;;;;0.60;0.60;;;;;;;20.43;83.31;100128.75;5032716;28;20072;-80
2023/07/12 06:37:47;;;;;;;0.60;0.60;;;;;;;20.50;82.56;100128.28;5000045;28;20045;-80
2023/07/12 06:40:13;;;;;;;9.32;1.58;;;;;;;20.78;82.04;100160.41;5032737;28;20037;-80
2023/07/12 06:42:41;;;;;;;0.80;0.70;;;;;;;20.94;80.43;100168.34;5032313;28;20041;-80
2023/07/12 06:45:08;;;;;;;1.08;0.60;;;;;;;20.92;79.70;100172.88;5032234;28;20048;-81
2023/07/12 06:47:35;;;;;;;0.47;0.43;;;;;;;20.87;77.94;100173.19;5014597;28;20045;-80
2023/07/12 06:50:20;;;;;;;2.03;0.57;;;;;;;20.76;77.62;100181.78;5032268;28;20057;-80
2023/07/12 06:52:47;;;;;;;0.63;0.63;;;;;;;20.73;76.33;100181.97;5031189;28;20523;-80
2023/07/12 06:55:14;;;;;;;0.80;0.63;;;;;;;20.73;76.07;100171.34;5032744;28;20103;-80
2023/07/12 06:57:40;;;;;;;0.52;0.50;;;;;;;20.79;75.75;100164.78;5052035;28;20464;-79
2023/07/12 07:00:09;;;;;;;1.05;0.55;;;;;;;20.75;75.67;100160.59;5052556;28;20120;-79
2023/07/12 07:02:36;;;;;;;2.80;0.50;;;;;;;20.64;75.14;100156.72;5048872;28;20369;-80
2023/07/12 07:05:04;;;;;;;1.52;0.50;;;;;;;20.50;76.58;100154.88;5049467;28;20038;-80
2023/07/12 07:07:31;;;;;;;0.82;0.30;;;;;;;20.52;76.58;100167.22;5020776;28;20041;-80
2023/07/12 07:09:57;;;;;;;0.55;0.55;;;;;;;20.54;76.24;100163.53;5019600;28;20034;-80
2023/07/12 07:12:24;;;;;;;1.15;0.50;;;;;;;20.64;75.07;100167.38;5000650;28;20078;-85
2023/07/12 07:14:50;;;;;;;0.82;0.47;;;;;;;20.72;75.03;100180.25;5017638;28;20456;-80
2023/07/12 07:17:17;;;;;;;2.30;0.70;;;;;;;20.76;74.31;100180.94;5020104;28;20039;-80
2023/07/12 07:19:44;;;;;;;0.90;0.30;;;;;;;20.82;73.04;100189.41;5018287;28;20442;-80
2023/07/12 07:22:10;;;;;;;0.77;0.50;;;;;;;20.90;72.85;100191.59;5053273;28;20396;-81
2023/07/12 07:24:37;;;;;;;0.45;0.45;;;;;;;20.98;70.16;100201.78;5032510;28;20510;-80
2023/07/12 07:27:04;;;;;;;1.02;0.40;;;;;;;21.20;67.64;100214.66;5023769;28;20124;-80
2023/07/12 07:29:32;;;;;;;3.90;0.50;;;;;;;21.54;66.45;100215.28;5035278;28;20511;-79
2023/07/12 07:31:58;;;;;;;1.58;0.40;;;;;;;21.92;65.12;100219.19;5028909;28;20033;-81
2023/07/12 07:34:25;;;;;;;0.50;0.20;;;;;;;22.27;62.93;100224.06;5028559;28;20046;-81
2023/07/12 07:36:53;;;;;;;1.83;0.32;;;;;;;22.48;62.55;100216.47;5030841;28;20038;-79
2023/07/12 07:40:10;;;;;;;0.90;0.28;;;;;;;22.73;61.82;100236.19;5037519;28;20109;-88
2023/07/12 07:42:36;;;;;;;4.07;0.85;;;;;;;22.87;61.37;100232.63;5040318;28;20057;-92
2023/07/12 07:45:02;;;;;;;2.97;0.98;;;;;;;23.16;60.49;100227.13;5017284;28;20037;-88
2023/07/12 07:47:29;;;;;;;4.32;0.60;;;;;;;23.36;60.38;100236.44;5044635;28;20029;-86
2023/07/12 07:49:55;;;;;;;1.95;0.65;;;;;;;23.55;60.54;100249.38;5050079;28;20072;-91
2023/07/12 07:52:22;;;;;;;3.95;0.45;;;;;;;23.73;60.00;100245.41;5060551;28;20047;-88
2023/07/12 07:54:49;;;;;;;2.58;0.40;;;;;;;24.01;59.08;100247.94;5053305;28;20120;-82
2023/07/12 07:57:15;;;;;;;1.98;0.40;;;;;;;24.42;58.10;100249.44;5023325;28;20100;-80
2023/07/12 07:59:42;;;;;;;1.83;0.40;;;;;;;24.78;56.06;100247.66;5042352;28;20040;-93
2023/07/12 08:02:11;;;;;;;0.60;0.45;;;;;;;24.55;55.80;100246.72;5045374;28;20033;-90
2023/07/12 08:04:39;;;;;;;0.73;0.30;;;;;;;24.71;55.19;100249.13;5037518;28;20125;-81
2023/07/12 08:07:07;;;;;;;0.55;0.40;;;;;;;25.35;53.57;100254.06;5029995;28;20045;-84
2023/07/12 08:09:37;;;;;;;6.05;0.90;;;;;;;25.23;52.11;100263.88;5014874;28;20038;-79
2023/07/12 08:12:05;;;;;;;4.18;0.50;;;;;;;25.03;52.52;100253.84;4998931;28;20038;-80
2023/07/12 08:14:31;;;;;;;1.55;0.63;;;;;;;24.37;54.75;100281.88;5049206;28;20053;-80
2023/07/12 08:16:57;;;;;;;3.72;0.80;;;;;;;23.56;56.68;100281.31;5040534;28;20040;-80
2023/07/12 08:21:59;;;;;;;2.33;0.68;;;;;;;24.05;55.47;100290.41;5070286;22;20440;-80
2023/07/12 08:24:47;;;;;;;2.25;0.55;;;;;;;24.41;54.29;100287.84;5012143;28;20049;-80
2023/07/12 08:27:16;;;;;;;3.03;0.40;;;;;;;24.53;53.39;100292.28;5020753;28;20053;-81
2023/07/12 08:29:44;;;;;;;0.57;0.50;;;;;;;24.67;52.54;100291.31;5038057;28;20044;-81
2023/07/12 08:32:11;;;;;;;0.68;0.68;;;;;;;24.22;53.44;100305.25;5037827;28;20036;-80
2023/07/12 08:34:38;;;;;;;0.50;0.38;;;;;;;23.66;55.34;100302.88;5017786;28;20033;-80
2023/07/12 08:41:15;;;;;;;0.63;0.28;;;;;;;22.79;57.80;100306.03;5055763;28;20035;-81
2023/07/12 08:43:42;;;;;;;0.63;0.52;;;;;;;22.69;58.36;100302.25;5037111;28;20037;-80
2023/07/12 08:46:21;;;;;;;0.60;0.52;;;;;;;22.68;58.49;100315.69;5036053;28;20037;-80
2023/07/12 08:48:54;;;;;;;2.42;1.30;;;;;;;22.57;58.24;100301.22;5032645;28;20471;-80
2023/07/12 08:51:29;;;;;;;2.97;0.90;;;;;;;22.26;58.82;100305.00;5017861;28;20038;-79
2023/07/12 08:53:56;;;;;;;0.68;0.68;;;;;;;22.02;59.57;100299.38;5017504;28;20053;-80
2023/07/12 08:56:25;;;;;;;2.80;1.55;;;;;;;22.10;59.74;100313.09;5018022;28;20045;-78
2023/07/12 08:58:55;;;;;;;1.20;1.10;;;;;;;22.06;60.37;100307.09;5017825;28;20038;-79
2023/07/12 09:01:44;;;;;;;0.80;0.80;;;;;;;21.93;60.89;100309.69;5017888;28;20128;-79
2023/07/12 09:04:23;;;;;;;1.45;1.42;;;;;;;21.58;61.56;100304.69;5017769;28;20432;-79
2023/07/12 09:06:55;;;;;;;1.23;1.23;;;;;;;21.39;62.60;100307.56;5017739;28;20091;-80
2023/07/12 09:09:22;;;;;;;1.90;1.80;;;;;;;21.29;63.27;100298.44;5017376;28;20065;-80
2023/07/12 09:11:49;;;;;;;1.63;1.52;;;;;;;21.41;63.13;100303.03;5017146;28;20042;-79
2023/07/12 09:14:19;;;;;;;2.15;1.90;;;;;;;21.69;62.04;100305.84;5019911;28;20048;-79
2023/07/12 09:16:49;;;;;;;2.08;1.77;;;;;;;22.44;59.68;100300.31;5004500;28;20072;-79
2023/07/12 09:19:23;;;;;;;1.30;1.20;;;;;;;22.93;57.21;100306.91;5013537;28;20034;-80
2023/07/12 09:21:56;;;;;;;1.30;1.30;;;;;;;23.20;56.70;100308.72;5026136;28;20045;-80
2023/07/12 09:24:27;;;;;;;1.02;1.02;;;;;;;24.24;53.74;100300.63;5019926;28;20041;-81
2023/07/12 09:27:04;;;;;;;3.65;1.40;;;;;;;26.02;48.97;100298.00;5054374;28;20040;-80
2023/07/12 09:29:33;;;;;;;2.97;1.20;;;;;;;27.31;46.35;100304.53;5048156;28;20028;-80
2023/07/12 09:32:33;;;;;;;1.95;1.23;;;;;;;28.63;42.40;100299.31;5053622;28;20118;-80
2023/07/12 09:35:04;;;;;;;2.35;0.82;;;;;;;28.63;42.30;100303.81;5027973;28;20037;-80
2023/07/12 09:37:38;;;;;;;2.72;1.50;;;;;;;26.83;45.24;100308.53;5034657;28;20463;-85
2023/07/12 09:40:17;;;;;;;2.05;1.85;;;;;;;26.17;46.53;100304.00;5036467;28;20124;-83
2023/07/12 09:42:49;;;;;;;1.48;1.08;;;;;;;25.03;48.76;100307.41;5032742;28;20037;-82
2023/07/12 09:45:15;;;;;;;1.10;0.90;;;;;;;24.22;51.49;100315.06;5014882;28;20041;-80
2023/07/12 09:48:05;;;;;;;2.35;1.00;;;;;;;23.78;53.11;100302.06;5035275;28;20475;-79
2023/07/12 09:50:45;;;;;;;1.45;0.95;;;;;;;23.32;54.83;100317.72;5036676;28;20041;-80
2023/07/12 09:53:53;;;;;;;1.48;0.93;;;;;;;23.32;55.26;100313.22;5036600;28;20048;-79
2023/07/12 09:56:34;;;;;;;2.20;1.00;;;;;;;23.06;55.77;100318.50;5035689;28;20040;-79
2023/07/12 09:59:20;;;;;;;3.05;1.23;;;;;;;23.24;56.01;100323.59;5036530;28;20043;-79
2023/07/12 10:02:40;;;;;;;2.55;1.20;;;;;;;23.62;54.69;100330.78;5039061;28;20052;-81
2023/07/12 10:05:27;;;;;;;1.48;1.00;;;;;;;23.57;54.77;100336.47;5039546;28;20365;-79
2023/07/12 10:08:09;;;;;;;1.85;1.30;;;;;;;23.36;55.96;100333.47;5036251;28;20041;-78
2023/07/12 10:11:11;;;;;;;3.95;0.90;;;;;;;23.23;56.08;100343.22;5038957;28;20052;-79
2023/07/12 10:13:47;;;;;;;1.15;0.63;;;;;;;23.00;56.64;100342.94;5017954;28;20124;-80
2023/07/12 10:16:19;;;;;;;2.10;1.00;;;;;;;24.50;52.32;100329.97;5036168;28;20052;-81
2023/07/12 10:18:50;;;;;;;0.80;0.80;;;;;;;25.77;48.34;100331.25;5051969;28;20369;-79
2023/07/12 10:21:25;;;;;;;1.50;0.57;;;;;;;25.57;47.94;100322.94;5018454;28;20180;-80
2023/07/12 10:23:57;;;;;;;0.70;0.50;;;;;;;25.10;48.92;100333.59;5032015;28;20034;-80
2023/07/12 10:26:24;;;;;;;1.77;0.98;;;;;;;24.52;50.32;100344.13;5032218;28;20041;-80
2023/07/12 10:29:04;;;;;;;2.38;0.90;;;;;;;24.01;51.42;100338.84;5030293;28;20127;-80
2023/07/12 10:31:42;;;;;;;1.88;1.25;;;;;;;24.51;49.95;100339.72;5042996;28;20036;-81
2023/07/12 10:34:21;;;;;;;1.48;0.75;;;;;;;24.77;49.81;100345.03;5025744;28;20049;-79
2023/07/12 10:36:54;;;;;;;2.60;0.77;;;;;;;26.12;45.40;100333.00;5032198;28;20045;-82
2023/07/12 10:39:22;;;;;;;0.70;0.70;;;;;;;27.99;41.08;100332.78;5046264;28;20048;-84
2023/07/12 10:41:56;;;;;;;1.83;0.57;;;;;;;27.94;40.58;100351.16;5048309;28;20434;-85
2023/07/12 10:44:30;;;;;;;2.58;0.88;;;;;;;27.73;40.63;100344.00;5017344;28;20048;-81
2023/07/12 10:47:01;;;;;;;3.30;0.80;;;;;;;27.60;40.59;100346.91;5034417;28;20462;-80
2023/07/12 10:49:48;;;;;;;1.80;0.75;;;;;;;28.20;39.77;100344.38;5046355;28;20087;-85
2023/07/12 10:52:27;;;;;;;2.10;0.93;;;;;;;27.94;39.73;100343.97;5012753;28;20076;-82
2023/07/12 10:55:21;;;;;;;0.95;0.70;;;;;;;28.97;38.93;100344.72;5050125;28;20060;-84
2023/07/12 10:57:52;;;;;;;0.70;0.60;;;;;;;29.00;38.23;100339.03;5034174;28;20045;-81
2023/07/12 11:00:30;;;;;;;1.33;0.55;;;;;;;28.74;36.94;100351.38;5034429;28;20053;-80
2023/07/12 11:03:12;;;;;;;1.48;1.08;;;;;;;29.15;36.98;100355.66;5035189;28;20040;-82
2023/07/12 11:05:41;;;;;;;1.95;0.60;;;;;;;30.17;35.13;100343.41;5043167;28;20044;-80
2023/07/12 11:08:37;;;;;;;2.60;1.25;;;;;;;30.60;34.58;100351.88;5028406;28;20037;-83
2023/07/12 11:11:09;;;;;;;3.22;0.55;;;;;;;31.28;31.83;100355.94;5037309;28;20392;-81
2023/07/12 11:13:46;;;;;;;3.92;0.90;;;;;;;31.94;31.05;100353.75;5038370;28;20052;-80
2023/07/12 11:16:17;;;;;;;3.30;0.47;;;;;;;32.05;29.59;100359.88;5028857;28;20644;-84
2023/07/12 11:18:56;;;;;;;1.67;0.73;;;;;;;30.37;32.27;100362.22;5030289;28;20472;-81
2023/07/12 11:21:51;;;;;;;1.80;0.50;;;;;;;28.63;34.78;100371.16;5049672;28;20067;-80
2023/07/12 11:24:31;;;;;;;1.58;0.70;;;;;;;27.87;36.84;100372.38;5040854;28;20040;-81
2023/07/12 11:27:00;;;;;;;3.33;0.80;;;;;;;27.62;37.79;100376.34;5048687;28;20037;-80
2023/07/12 11:29:35;;;;;;;1.58;0.90;;;;;;;27.89;37.37;100365.03;5045481;28;20029;-80
2023/07/12 11:32:22;;;;;;;3.22;0.80;;;;;;;27.92;37.38;100369.31;5028388;28;20048;-82
2023/07/12 11:34:56;;;;;;;2.08;0.80;;;;;;;28.78;36.16;100367.09;5037791;28;20053;-83
2023/07/12 11:37:31;;;;;;;1.55;0.63;;;;;;;28.92;35.43;100368.53;5042960;28;20047;-80
2023/07/12 11:39:57;;;;;;;3.80;1.05;;;;;;;28.33;36.06;100378.28;5015613;28;20621;-82
2023/07/12 11:42:30;;;;;;;2.88;0.73;;;;;;;29.67;33.43;100366.13;5002297;28;20503;-80
2023/07/12 11:45:11;;;;;;;2.67;0.63;;;;;;;30.48;31.47;100367.47;5033649;28;20464;-83
2023/07/12 11:47:42;;;;;;;1.20;0.80;;;;;;;30.65;31.27;100363.09;5048290;28;20064;-80
2023/07/12 11:50:19;;;;;;;6.53;0.88;;;;;;;32.16;29.55;100367.72;5021707;28;20817;-88
2023/07/12 11:52:46;;;;;;;2.30;0.47;;;;;;;32.16;29.31;100371.28;5049738;28;20048;-85
2023/07/12 11:55:21;;;;;;;1.58;1.00;;;;;;;30.97;30.72;100361.72;5043090;28;20037;-81
2023/07/12 11:57:49;;;;;;;2.13;0.60;;;;;;;30.18;31.86;100366.72;5058869;28;20045;-81
2023/07/12 12:00:24;;;;;;;2.28;1.02;;;;;;;29.31;33.81;100368.59;5037591;28;20040;-81